Time;durP1;ratioP1;P1;durP2;ratioP2;P2;SDS_P1;SDS_P2;PMS_P1;PMS_P2;Temp;Humidity;BMP_temperature;BMP_pressure;BME280_temperature;BME280_humidity;BME280_pressure;Samples;Min_cycle;Max_cycle;Signal;HPM_P1;HPM_P2
2022/02/28 00:01:52;;;;;;;0.90;0.90;;;;;;;;;;4973126;28;20403;-59
2022/02/28 00:04:20;;;;;;;0.80;0.80;;;;;;;;;;4973197;28;20430;-58
2022/02/28 00:06:46;;;;;;;0.80;0.80;;;;;;;;;;4973180;28;20578;-59
2022/02/28 00:09:12;;;;;;;0.90;0.90;;;;;;;;;;4973117;28;20180;-59
2022/02/28 00:11:38;;;;;;;0.60;0.60;;;;;;;;;;4972959;28;20807;-59
2022/02/28 00:14:04;;;;;;;0.80;0.80;;;;;;;;;;4973122;28;20854;-59
2022/02/28 00:16:30;;;;;;;0.70;0.70;;;;;;;;;;4973063;28;20403;-59
2022/02/28 00:18:56;;;;;;;0.90;0.90;;;;;;;;;;4972996;28;20478;-59
2022/02/28 00:21:22;;;;;;;0.77;0.77;;;;;;;;;;4972708;28;20598;-59
2022/02/28 00:23:48;;;;;;;0.70;0.70;;;;;;;;;;4972900;28;20502;-59
2022/02/28 00:26:14;;;;;;;0.80;0.80;;;;;;;;;;4973045;28;20179;-60
2022/02/28 00:28:40;;;;;;;0.60;0.60;;;;;;;;;;4973695;28;20414;-57
2022/02/28 00:31:06;;;;;;;0.70;0.70;;;;;;;;;;4972739;28;20411;-58
2022/02/28 00:33:32;;;;;;;0.70;0.70;;;;;;;;;;4973288;28;20429;-54
2022/02/28 00:35:57;;;;;;;0.93;0.93;;;;;;;;;;4972726;28;20458;-56
2022/02/28 00:38:24;;;;;;;0.80;0.80;;;;;;;;;;4972791;28;20406;-56
2022/02/28 00:40:51;;;;;;;0.70;0.70;;;;;;;;;;4972551;28;20906;-59
2022/02/28 00:43:17;;;;;;;0.90;0.90;;;;;;;;;;4972780;28;20167;-58
2022/02/28 00:45:43;;;;;;;0.80;0.80;;;;;;;;;;4972573;28;20297;-57
2022/02/28 00:48:09;;;;;;;0.80;0.80;;;;;;;;;;4972611;28;20179;-57
2022/02/28 00:50:35;;;;;;;0.75;0.75;;;;;;;;;;4972447;28;20186;-58
2022/02/28 00:53:01;;;;;;;0.70;0.70;;;;;;;;;;4972673;28;20194;-57
2022/02/28 00:55:27;;;;;;;0.90;0.90;;;;;;;;;;4972613;28;20269;-59
2022/02/28 00:57:53;;;;;;;0.90;0.90;;;;;;;;;;4972622;28;20438;-59
2022/02/28 01:00:22;;;;;;;0.87;0.87;;;;;;;;;;4972282;28;20316;-59
2022/02/28 01:02:48;;;;;;;0.80;0.80;;;;;;;;;;4972781;28;20418;-59
2022/02/28 01:05:15;;;;;;;0.70;0.70;;;;;;;;;;4972603;28;20191;-60
2022/02/28 01:07:41;;;;;;;0.52;0.52;;;;;;;;;;4972626;28;20662;-58
2022/02/28 01:10:08;;;;;;;0.90;0.90;;;;;;;;;;4972644;28;20183;-57
2022/02/28 01:12:34;;;;;;;0.70;0.70;;;;;;;;;;4972554;28;20639;-59
2022/02/28 01:15:01;;;;;;;0.80;0.80;;;;;;;;;;4972409;28;20226;-59
2022/02/28 01:17:27;;;;;;;0.70;0.70;;;;;;;;;;4972393;28;20190;-58
2022/02/28 01:19:53;;;;;;;0.80;0.80;;;;;;;;;;4972281;28;20207;-59
2022/02/28 01:22:19;;;;;;;0.70;0.70;;;;;;;;;;4972188;28;20175;-59
2022/02/28 01:24:45;;;;;;;0.77;0.77;;;;;;;;;;4972415;28;20422;-59
2022/02/28 01:27:11;;;;;;;0.90;0.90;;;;;;;;;;4972344;28;20206;-59
2022/02/28 01:29:37;;;;;;;0.90;0.90;;;;;;;;;;4972307;28;20202;-59
2022/02/28 01:32:03;;;;;;;0.80;0.80;;;;;;;;;;4972068;28;20179;-59
2022/02/28 01:34:29;;;;;;;0.90;0.90;;;;;;;;;;4972199;28;20430;-59
2022/02/28 01:36:55;;;;;;;0.73;0.73;;;;;;;;;;4972368;28;20190;-59
2022/02/28 01:39:21;;;;;;;0.70;0.70;;;;;;;;;;4972136;28;20454;-59
2022/02/28 01:41:46;;;;;;;0.73;0.73;;;;;;;;;;4972114;28;20410;-59
2022/02/28 01:44:12;;;;;;;0.80;0.80;;;;;;;;;;4972349;28;20465;-57
2022/02/28 01:46:39;;;;;;;0.97;0.97;;;;;;;;;;4975822;28;20410;-59
2022/02/28 01:49:05;;;;;;;0.60;0.60;;;;;;;;;;4975659;28;20803;-59
2022/02/28 01:51:31;;;;;;;0.70;0.70;;;;;;;;;;4975564;28;20178;-60
2022/02/28 01:53:57;;;;;;;0.90;0.90;;;;;;;;;;4975550;28;20406;-59
2022/02/28 01:56:23;;;;;;;0.70;0.70;;;;;;;;;;4975633;28;20550;-59
2022/02/28 01:58:49;;;;;;;0.80;0.80;;;;;;;;;;4975442;28;20528;-59
2022/02/28 02:01:15;;;;;;;0.73;0.73;;;;;;;;;;4973993;28;20266;-60
2022/02/28 02:03:41;;;;;;;0.70;0.70;;;;;;;;;;4975590;28;20403;-59
2022/02/28 02:06:09;;;;;;;0.80;0.80;;;;;;;;;;4975549;28;20434;-60
2022/02/28 02:08:35;;;;;;;0.80;0.80;;;;;;;;;;4975486;28;20467;-60
2022/02/28 02:11:03;;;;;;;0.80;0.80;;;;;;;;;;4975092;28;20237;-59
2022/02/28 02:13:30;;;;;;;0.85;0.85;;;;;;;;;;4975593;28;20234;-59
2022/02/28 02:15:57;;;;;;;1.00;1.00;;;;;;;;;;4975435;28;20289;-59
2022/02/28 02:18:23;;;;;;;0.80;0.80;;;;;;;;;;4975178;28;20627;-60
2022/02/28 02:20:50;;;;;;;0.70;0.70;;;;;;;;;;4975006;28;20167;-58
2022/02/28 02:23:16;;;;;;;0.68;0.68;;;;;;;;;;4975162;28;20180;-57
2022/02/28 02:25:42;;;;;;;0.70;0.70;;;;;;;;;;4975034;28;20563;-59
2022/02/28 02:28:09;;;;;;;0.80;0.80;;;;;;;;;;4974927;28;20206;-60
2022/02/28 02:30:36;;;;;;;0.80;0.80;;;;;;;;;;4974798;28;20209;-59
2022/02/28 02:33:02;;;;;;;0.70;0.70;;;;;;;;;;4975023;28;20250;-60
2022/02/28 02:35:28;;;;;;;0.70;0.70;;;;;;;;;;4974884;28;20203;-58
2022/02/28 02:37:54;;;;;;;0.70;0.70;;;;;;;;;;4975033;28;20333;-59
2022/02/28 02:40:20;;;;;;;1.10;1.10;;;;;;;;;;4974601;28;20213;-60
2022/02/28 02:42:46;;;;;;;0.70;0.70;;;;;;;;;;4974777;28;20171;-59
2022/02/28 02:45:12;;;;;;;0.60;0.60;;;;;;;;;;4974503;28;20215;-59
2022/02/28 02:47:38;;;;;;;0.80;0.80;;;;;;;;;;4974753;28;20659;-60
2022/02/28 02:50:05;;;;;;;0.70;0.70;;;;;;;;;;4974642;28;20415;-58
2022/02/28 02:52:31;;;;;;;0.70;0.70;;;;;;;;;;4974505;28;20421;-60
2022/02/28 02:54:57;;;;;;;0.70;0.70;;;;;;;;;;4974434;28;20297;-61
2022/02/28 02:57:23;;;;;;;0.80;0.80;;;;;;;;;;4973951;28;20406;-60
2022/02/28 02:59:50;;;;;;;0.70;0.70;;;;;;;;;;4974315;28;20708;-60
2022/02/28 03:02:16;;;;;;;0.70;0.70;;;;;;;;;;4974243;28;20168;-59
2022/02/28 03:04:42;;;;;;;0.70;0.70;;;;;;;;;;4974360;28;20215;-60
2022/02/28 03:07:18;;;;;;;0.70;0.70;;;;;;;;;;4974328;28;20705;-60
2022/02/28 03:09:45;;;;;;;0.50;0.50;;;;;;;;;;4974199;28;20266;-58
2022/02/28 03:12:11;;;;;;;0.80;0.80;;;;;;;;;;4973884;28;20547;-60
2022/02/28 03:14:37;;;;;;;0.80;0.80;;;;;;;;;;4974075;28;20190;-58
2022/02/28 03:17:03;;;;;;;0.60;0.60;;;;;;;;;;4974190;28;20226;-59
2022/02/28 03:19:29;;;;;;;0.68;0.68;;;;;;;;;;4973935;28;20205;-59
2022/02/28 03:21:55;;;;;;;0.60;0.60;;;;;;;;;;4973823;28;20179;-60
2022/02/28 03:24:21;;;;;;;0.77;0.77;;;;;;;;;;4973763;28;20446;-60
2022/02/28 03:26:47;;;;;;;0.60;0.60;;;;;;;;;;4973837;28;20419;-60
2022/02/28 03:29:13;;;;;;;0.70;0.70;;;;;;;;;;4973906;28;20418;-59
2022/02/28 03:31:39;;;;;;;0.87;0.87;;;;;;;;;;4973815;28;20427;-60
2022/02/28 03:34:05;;;;;;;0.70;0.70;;;;;;;;;;4973827;28;20441;-60
2022/02/28 03:36:30;;;;;;;0.70;0.70;;;;;;;;;;4973776;28;20657;-59
2022/02/28 03:38:56;;;;;;;0.70;0.70;;;;;;;;;;4974133;28;20461;-59
2022/02/28 03:41:22;;;;;;;0.70;0.70;;;;;;;;;;4973688;28;20426;-59
2022/02/28 03:43:48;;;;;;;0.70;0.70;;;;;;;;;;4973485;28;20462;-59
2022/02/28 03:46:14;;;;;;;0.70;0.70;;;;;;;;;;5017871;23;20496;-61
2022/02/28 03:48:40;;;;;;;0.80;0.80;;;;;;;;;;5013090;28;20772;-61
2022/02/28 03:51:07;;;;;;;0.77;0.77;;;;;;;;;;5012453;28;20174;-61
2022/02/28 03:53:33;;;;;;;1.00;1.00;;;;;;;;;;5012720;28;20414;-61
2022/02/28 03:56:00;;;;;;;0.70;0.70;;;;;;;;;;5025911;28;20197;-61
2022/02/28 03:58:26;;;;;;;0.68;0.68;;;;;;;;;;5032171;28;20563;-60
2022/02/28 04:00:52;;;;;;;0.73;0.73;;;;;;;;;;5031708;28;20176;-61
2022/02/28 04:03:18;;;;;;;0.70;0.70;;;;;;;;;;5031913;28;20173;-61
2022/02/28 04:05:44;;;;;;;0.60;0.60;;;;;;;;;;5031855;28;20514;-61
2022/02/28 04:08:10;;;;;;;0.80;0.80;;;;;;;;;;5031548;28;20314;-61
2022/02/28 04:10:36;;;;;;;0.70;0.70;;;;;;;;;;5031509;28;20791;-61
2022/02/28 04:13:02;;;;;;;0.60;0.60;;;;;;;;;;5031720;28;20890;-61
2022/02/28 04:15:28;;;;;;;0.80;0.80;;;;;;;;;;5031733;28;20840;-61
2022/02/28 04:17:54;;;;;;;0.70;0.70;;;;;;;;;;5031737;28;20426;-61
2022/02/28 04:20:20;;;;;;;0.80;0.80;;;;;;;;;;5031333;28;20452;-61
2022/02/28 04:22:46;;;;;;;0.77;0.77;;;;;;;;;;5031687;28;20644;-61
2022/02/28 04:25:12;;;;;;;0.70;0.70;;;;;;;;;;5030066;28;21018;-61
2022/02/28 04:27:38;;;;;;;0.60;0.60;;;;;;;;;;5031566;28;20404;-61
2022/02/28 04:30:04;;;;;;;0.80;0.80;;;;;;;;;;5031374;28;20182;-61
2022/02/28 04:32:30;;;;;;;0.70;0.70;;;;;;;;;;5031153;28;20419;-61
2022/02/28 04:34:56;;;;;;;0.70;0.70;;;;;;;;;;5031373;28;20200;-61
2022/02/28 04:37:22;;;;;;;0.80;0.80;;;;;;;;;;5031410;28;20407;-60
2022/02/28 04:39:48;;;;;;;0.80;0.80;;;;;;;;;;5031271;28;20557;-61
2022/02/28 04:42:14;;;;;;;1.00;1.00;;;;;;;;;;5031278;28;20495;-61
2022/02/28 04:44:40;;;;;;;0.77;0.77;;;;;;;;;;5031187;28;20196;-60
2022/02/28 04:47:07;;;;;;;0.85;0.85;;;;;;;;;;5031282;28;20439;-61
2022/02/28 04:49:33;;;;;;;0.90;0.90;;;;;;;;;;5031266;28;20602;-61
2022/02/28 04:51:59;;;;;;;0.90;0.90;;;;;;;;;;5031254;28;20203;-61
2022/02/28 04:54:25;;;;;;;1.10;1.10;;;;;;;;;;5032060;28;20168;-61
2022/02/28 04:56:51;;;;;;;1.20;1.20;;;;;;;;;;5031890;28;20415;-61
2022/02/28 04:59:17;;;;;;;1.30;1.30;;;;;;;;;;5031635;28;20447;-61
2022/02/28 05:01:43;;;;;;;0.80;0.80;;;;;;;;;;5030414;28;20578;-61
2022/02/28 05:04:09;;;;;;;1.00;1.00;;;;;;;;;;5031895;28;20256;-62
2022/02/28 05:06:35;;;;;;;1.03;1.03;;;;;;;;;;5031496;28;20294;-61
2022/02/28 05:09:01;;;;;;;1.00;1.00;;;;;;;;;;5031420;28;20503;-62
2022/02/28 05:11:27;;;;;;;0.80;0.80;;;;;;;;;;5031048;28;20423;-60
2022/02/28 05:13:53;;;;;;;0.80;0.80;;;;;;;;;;5031315;28;20188;-61
2022/02/28 05:16:19;;;;;;;0.80;0.80;;;;;;;;;;5030997;28;21320;-61
2022/02/28 05:18:45;;;;;;;1.00;1.00;;;;;;;;;;5031179;28;20284;-61
2022/02/28 05:21:11;;;;;;;1.00;1.00;;;;;;;;;;5034512;28;20431;-61
2022/02/28 05:23:37;;;;;;;0.88;0.88;;;;;;;;;;5034938;28;20407;-61
2022/02/28 05:26:03;;;;;;;1.00;1.00;;;;;;;;;;5035010;28;20786;-60
2022/02/28 05:28:29;;;;;;;1.00;1.00;;;;;;;;;;5034973;28;20425;-61
2022/02/28 05:30:55;;;;;;;1.00;1.00;;;;;;;;;;5034672;28;20720;-60
2022/02/28 05:33:21;;;;;;;1.10;1.10;;;;;;;;;;5034837;28;20890;-61
2022/02/28 05:35:48;;;;;;;0.90;0.90;;;;;;;;;;5034855;28;21078;-60
2022/02/28 05:38:14;;;;;;;1.05;1.05;;;;;;;;;;5034933;28;20173;-61
2022/02/28 05:40:39;;;;;;;0.97;0.97;;;;;;;;;;5034781;28;20196;-61
2022/02/28 05:43:05;;;;;;;0.80;0.80;;;;;;;;;;5034633;28;20490;-61
2022/02/28 05:45:36;;;;;;;1.08;1.08;;;;;;;;;;5034492;28;20806;-61
2022/02/28 05:48:06;;;;;;;1.00;1.00;;;;;;;;;;5034794;28;20653;-62
2022/02/28 05:50:32;;;;;;;1.00;1.00;;;;;;;;;;5034511;28;20179;-62
2022/02/28 05:53:00;;;;;;;1.00;1.00;;;;;;;;;;5034370;28;20252;-62
2022/02/28 05:55:27;;;;;;;1.15;1.15;;;;;;;;;;5034348;28;20187;-62
2022/02/28 05:57:53;;;;;;;1.20;1.20;;;;;;;;;;5033865;28;20703;-63
2022/02/28 06:00:19;;;;;;;1.53;1.53;;;;;;;;;;5034030;28;20299;-62
2022/02/28 06:02:47;;;;;;;1.17;1.17;;;;;;;;;;5034280;28;20418;-62
2022/02/28 06:05:13;;;;;;;0.95;0.95;;;;;;;;;;5034156;28;20192;-62
2022/02/28 06:07:39;;;;;;;1.10;1.10;;;;;;;;;;5034097;28;20586;-62
2022/02/28 06:10:05;;;;;;;1.27;1.27;;;;;;;;;;5033965;28;20419;-62
2022/02/28 06:12:31;;;;;;;0.98;0.98;;;;;;;;;;5034027;28;20925;-62
2022/02/28 06:14:57;;;;;;;0.93;0.93;;;;;;;;;;5034097;28;20196;-62
2022/02/28 06:17:23;;;;;;;1.57;1.57;;;;;;;;;;5034213;28;20411;-61
2022/02/28 06:19:50;;;;;;;1.10;1.10;;;;;;;;;;5033778;28;20553;-62
2022/02/28 06:22:16;;;;;;;1.20;1.20;;;;;;;;;;5033941;28;20417;-60
2022/02/28 06:24:42;;;;;;;1.00;1.00;;;;;;;;;;5033952;28;20189;-62
2022/02/28 06:27:08;;;;;;;1.00;1.00;;;;;;;;;;5020028;28;20221;-62
2022/02/28 06:29:34;;;;;;;1.03;1.03;;;;;;;;;;5014318;28;20420;-62
2022/02/28 06:31:59;;;;;;;0.90;0.90;;;;;;;;;;5013409;28;20423;-62
2022/02/28 06:34:31;;;;;;;1.63;1.53;;;;;;;;;;5013874;28;20474;-62
2022/02/28 06:36:57;;;;;;;1.20;1.20;;;;;;;;;;5014057;28;20532;-62
2022/02/28 06:39:23;;;;;;;1.17;1.17;;;;;;;;;;5013744;28;20245;-61
2022/02/28 06:41:48;;;;;;;1.37;1.37;;;;;;;;;;5013717;28;20443;-61
2022/02/28 06:44:14;;;;;;;1.40;1.40;;;;;;;;;;5013698;28;20411;-62
2022/02/28 06:46:40;;;;;;;1.45;1.45;;;;;;;;;;5013465;28;20963;-61
2022/02/28 06:49:06;;;;;;;1.13;1.13;;;;;;;;;;5013487;28;20186;-62
2022/02/28 06:51:32;;;;;;;1.40;1.40;;;;;;;;;;5013413;28;20984;-61
2022/02/28 06:53:58;;;;;;;1.30;1.30;;;;;;;;;;5013593;28;20397;-62
2022/02/28 06:56:24;;;;;;;1.30;1.30;;;;;;;;;;4995837;28;20471;-62
2022/02/28 06:58:50;;;;;;;1.47;1.47;;;;;;;;;;5015445;28;20480;-60
2022/02/28 07:01:16;;;;;;;1.50;1.50;;;;;;;;;;5012860;28;20411;-62
2022/02/28 07:03:42;;;;;;;1.27;1.27;;;;;;;;;;5013301;28;20267;-61
2022/02/28 07:06:10;;;;;;;1.10;1.10;;;;;;;;;;5013317;28;20193;-61
2022/02/28 07:08:36;;;;;;;1.20;1.20;;;;;;;;;;5013215;28;20182;-61
2022/02/28 07:11:02;;;;;;;1.33;1.33;;;;;;;;;;5013036;28;20548;-62
2022/02/28 07:13:28;;;;;;;1.05;1.05;;;;;;;;;;5013380;28;20189;-62
2022/02/28 07:15:54;;;;;;;1.17;1.17;;;;;;;;;;5013090;28;20189;-62
2022/02/28 07:18:20;;;;;;;1.25;1.25;;;;;;;;;;5013086;28;20170;-63
2022/02/28 07:20:46;;;;;;;1.20;1.20;;;;;;;;;;5012800;28;20215;-61
2022/02/28 07:23:12;;;;;;;1.30;1.30;;;;;;;;;;5013049;28;20415;-62
2022/02/28 07:25:38;;;;;;;1.53;1.53;;;;;;;;;;5012977;28;20424;-61
2022/02/28 07:28:04;;;;;;;1.10;1.10;;;;;;;;;;5012982;28;20414;-62
2022/02/28 07:30:30;;;;;;;1.05;1.05;;;;;;;;;;5012636;28;20404;-62
2022/02/28 07:32:57;;;;;;;1.30;1.30;;;;;;;;;;5012725;28;20181;-62
2022/02/28 07:35:23;;;;;;;0.90;0.90;;;;;;;;;;5012733;28;20212;-61
2022/02/28 07:37:48;;;;;;;1.10;1.10;;;;;;;;;;5012837;28;20193;-62
2022/02/28 07:40:15;;;;;;;1.53;1.53;;;;;;;;;;5012478;28;20492;-61
2022/02/28 07:42:41;;;;;;;1.50;1.50;;;;;;;;;;5010320;28;20496;-62
2022/02/28 07:45:08;;;;;;;1.20;1.20;;;;;;;;;;4994835;28;20212;-62
2022/02/28 07:47:34;;;;;;;1.10;1.10;;;;;;;;;;5012454;28;20170;-62
2022/02/28 07:50:00;;;;;;;1.27;1.27;;;;;;;;;;5011922;28;20184;-62
2022/02/28 07:52:26;;;;;;;1.20;1.20;;;;;;;;;;5012028;28;20183;-61
2022/02/28 07:54:52;;;;;;;1.00;1.00;;;;;;;;;;5012382;28;20279;-62
2022/02/28 07:57:18;;;;;;;1.38;1.38;;;;;;;;;;5012457;28;20785;-61
2022/02/28 07:59:44;;;;;;;1.20;1.20;;;;;;;;;;5012218;28;20211;-62
2022/02/28 08:02:10;;;;;;;1.27;1.27;;;;;;;;;;5011797;28;20184;-62
2022/02/28 08:04:36;;;;;;;1.35;1.35;;;;;;;;;;5012173;28;20405;-62
2022/02/28 08:07:02;;;;;;;1.10;1.10;;;;;;;;;;5012386;28;20197;-62
2022/02/28 08:09:29;;;;;;;1.10;1.10;;;;;;;;;;5012301;28;20170;-61
2022/02/28 08:11:55;;;;;;;1.27;1.27;;;;;;;;;;5011856;28;20593;-62
2022/02/28 08:14:21;;;;;;;1.30;1.30;;;;;;;;;;4993896;28;20180;-61
2022/02/28 08:16:47;;;;;;;1.60;1.60;;;;;;;;;;5012285;28;20416;-61
2022/02/28 08:19:13;;;;;;;1.43;1.43;;;;;;;;;;5011937;28;20668;-62
2022/02/28 08:21:39;;;;;;;0.93;0.93;;;;;;;;;;5011725;28;20487;-62
2022/02/28 08:24:05;;;;;;;1.10;1.10;;;;;;;;;;5011469;28;20416;-62
2022/02/28 08:26:31;;;;;;;1.02;1.02;;;;;;;;;;4993952;28;20519;-62
2022/02/28 08:28:57;;;;;;;1.25;1.25;;;;;;;;;;5011881;28;20245;-62
2022/02/28 08:31:23;;;;;;;1.10;1.10;;;;;;;;;;5011639;28;20254;-62
2022/02/28 08:33:49;;;;;;;1.23;1.23;;;;;;;;;;5011846;28;20884;-62
2022/02/28 08:36:16;;;;;;;1.20;1.20;;;;;;;;;;5011381;28;20200;-62
2022/02/28 08:38:42;;;;;;;1.20;1.20;;;;;;;;;;5011552;28;20422;-61
2022/02/28 08:41:08;;;;;;;1.38;1.38;;;;;;;;;;5011547;28;20198;-62
2022/02/28 08:43:34;;;;;;;1.17;1.17;;;;;;;;;;5011760;28;20538;-62
2022/02/28 08:46:01;;;;;;;1.97;1.93;;;;;;;;;;5011124;28;20449;-63
2022/02/28 08:48:27;;;;;;;1.05;1.05;;;;;;;;;;5011671;28;20415;-62
2022/02/28 08:50:53;;;;;;;0.90;0.90;;;;;;;;;;5011046;28;20262;-62
2022/02/28 08:53:20;;;;;;;1.10;1.10;;;;;;;;;;5012179;28;20447;-63
2022/02/28 08:55:46;;;;;;;1.50;1.50;;;;;;;;;;5015720;28;20438;-63
2022/02/28 08:58:12;;;;;;;1.03;1.03;;;;;;;;;;5015122;28;20188;-63
2022/02/28 09:00:38;;;;;;;0.80;0.80;;;;;;;;;;4997635;28;20522;-63
2022/02/28 09:03:06;;;;;;;0.90;0.90;;;;;;;;;;5015346;28;20857;-60
2022/02/28 09:05:33;;;;;;;1.00;1.00;;;;;;;;;;5015508;28;20428;-61
2022/02/28 09:07:59;;;;;;;0.90;0.90;;;;;;;;;;5015201;28;20173;-61
2022/02/28 09:10:25;;;;;;;0.97;0.97;;;;;;;;;;5014972;28;20173;-62
2022/02/28 09:12:52;;;;;;;0.80;0.80;;;;;;;;;;5015347;28;20426;-62
2022/02/28 09:15:18;;;;;;;0.80;0.80;;;;;;;;;;5015653;28;20634;-61
2022/02/28 09:17:44;;;;;;;0.90;0.90;;;;;;;;;;5015475;28;20553;-62
2022/02/28 09:20:10;;;;;;;0.60;0.60;;;;;;;;;;5015089;28;20452;-61
2022/02/28 09:22:36;;;;;;;0.60;0.60;;;;;;;;;;5015352;28;20959;-61
2022/02/28 09:25:02;;;;;;;1.00;1.00;;;;;;;;;;5015522;28;20476;-61
2022/02/28 09:27:28;;;;;;;1.00;1.00;;;;;;;;;;5015813;28;20401;-61
2022/02/28 09:29:54;;;;;;;0.90;0.90;;;;;;;;;;5015159;28;20409;-62
2022/02/28 09:32:20;;;;;;;0.70;0.70;;;;;;;;;;5014963;28;20411;-61
2022/02/28 09:34:46;;;;;;;1.40;1.40;;;;;;;;;;5015006;28;20534;-62
2022/02/28 09:37:12;;;;;;;1.13;1.13;;;;;;;;;;5015079;28;20789;-62
2022/02/28 09:39:38;;;;;;;1.00;1.00;;;;;;;;;;5014928;28;20997;-62
2022/02/28 09:42:04;;;;;;;0.93;0.93;;;;;;;;;;4997064;28;20413;-62
2022/02/28 09:44:31;;;;;;;0.90;0.90;;;;;;;;;;5014761;28;20393;-61
2022/02/28 09:46:58;;;;;;;0.70;0.70;;;;;;;;;;5044569;23;20507;-60
2022/02/28 09:49:25;;;;;;;0.60;0.60;;;;;;;;;;5034264;28;20396;-60
2022/02/28 09:51:51;;;;;;;0.83;0.83;;;;;;;;;;5034298;28;20443;-61
2022/02/28 09:54:17;;;;;;;0.73;0.73;;;;;;;;;;5034429;28;20403;-60
2022/02/28 09:56:43;;;;;;;0.60;0.60;;;;;;;;;;5049044;28;20940;-60
2022/02/28 09:59:09;;;;;;;0.90;0.90;;;;;;;;;;5054144;28;20481;-60
2022/02/28 10:01:35;;;;;;;0.60;0.60;;;;;;;;;;5053958;28;20939;-60
2022/02/28 10:04:02;;;;;;;0.60;0.60;;;;;;;;;;5054209;28;20414;-59
2022/02/28 10:06:28;;;;;;;0.60;0.60;;;;;;;;;;5053166;28;20437;-60
2022/02/28 10:08:59;;;;;;;0.60;0.60;;;;;;;;;;5054082;28;20445;-60
2022/02/28 10:11:26;;;;;;;0.60;0.60;;;;;;;;;;5053958;28;20407;-60
2022/02/28 10:13:53;;;;;;;0.80;0.80;;;;;;;;;;5054021;28;20907;-60
2022/02/28 10:16:36;;;;;;;0.80;0.80;;;;;;;;;;5053675;28;20771;-60
2022/02/28 10:19:04;;;;;;;0.50;0.50;;;;;;;;;;5053945;28;20481;-60
2022/02/28 10:21:40;;;;;;;0.60;0.60;;;;;;;;;;5054605;28;20509;-60
2022/02/28 10:24:10;;;;;;;0.50;0.50;;;;;;;;;;5053866;28;20385;-60
2022/02/28 10:26:43;;;;;;;0.70;0.70;;;;;;;;;;5053665;28;20483;-60
2022/02/28 10:29:10;;;;;;;1.07;1.07;;;;;;;;;;5053530;28;20374;-60
2022/02/28 10:31:40;;;;;;;0.70;0.70;;;;;;;;;;5053454;28;20847;-61
2022/02/28 10:34:17;;;;;;;0.67;0.67;;;;;;;;;;5053513;28;20777;-59
2022/02/28 10:36:44;;;;;;;0.77;0.77;;;;;;;;;;5053378;28;20430;-60
2022/02/28 10:39:10;;;;;;;0.83;0.83;;;;;;;;;;5053213;28;20856;-59
2022/02/28 10:41:43;;;;;;;0.70;0.70;;;;;;;;;;5053051;28;20415;-60
2022/02/28 10:44:14;;;;;;;0.60;0.60;;;;;;;;;;5053347;28;20832;-59
2022/02/28 10:46:42;;;;;;;0.60;0.60;;;;;;;;;;5053130;28;20933;-59
2022/02/28 10:49:20;;;;;;;0.70;0.70;;;;;;;;;;5053264;28;20472;-59
2022/02/28 10:51:57;;;;;;;0.57;0.57;;;;;;;;;;5052931;28;20433;-57
2022/02/28 10:54:29;;;;;;;0.57;0.57;;;;;;;;;;5053254;28;20406;-60
2022/02/28 10:57:15;;;;;;;0.40;0.40;;;;;;;;;;5053088;28;20827;-59
2022/02/28 10:59:43;;;;;;;0.60;0.60;;;;;;;;;;5053053;28;20451;-59
2022/02/28 11:02:10;;;;;;;0.50;0.50;;;;;;;;;;5052660;28;20940;-56
2022/02/28 11:04:37;;;;;;;0.60;0.60;;;;;;;;;;5053105;28;20411;-59
2022/02/28 11:07:04;;;;;;;0.57;0.57;;;;;;;;;;5052876;28;20491;-57
2022/02/28 11:09:34;;;;;;;0.60;0.60;;;;;;;;;;5036763;28;20937;-59
2022/02/28 11:12:19;;;;;;;0.50;0.50;;;;;;;;;;5037898;28;20451;-60
2022/02/28 11:14:48;;;;;;;0.50;0.50;;;;;;;;;;5032791;28;20415;-59
2022/02/28 11:17:17;;;;;;;0.40;0.40;;;;;;;;;;5032599;28;20447;-60
2022/02/28 11:19:43;;;;;;;0.50;0.50;;;;;;;;;;5032812;28;20463;-59
2022/02/28 11:22:09;;;;;;;0.60;0.60;;;;;;;;;;5032476;28;20548;-59
2022/02/28 11:24:36;;;;;;;0.40;0.40;;;;;;;;;;5032536;28;20382;-59
2022/02/28 11:27:02;;;;;;;0.40;0.40;;;;;;;;;;5032711;28;20522;-59
2022/02/28 11:29:28;;;;;;;0.40;0.40;;;;;;;;;;5032680;28;20443;-60
2022/02/28 11:31:55;;;;;;;0.40;0.40;;;;;;;;;;5032408;28;20433;-59
2022/02/28 11:34:24;;;;;;;0.50;0.50;;;;;;;;;;5032677;28;20485;-60
2022/02/28 11:36:55;;;;;;;0.50;0.50;;;;;;;;;;5032413;28;20434;-60
2022/02/28 11:39:28;;;;;;;0.60;0.60;;;;;;;;;;5032436;28;20432;-60
2022/02/28 11:41:54;;;;;;;0.67;0.67;;;;;;;;;;5032132;28;20422;-60
2022/02/28 11:44:20;;;;;;;0.60;0.60;;;;;;;;;;5032297;28;20849;-60
2022/02/28 11:46:47;;;;;;;0.50;0.50;;;;;;;;;;5032050;28;20458;-60
2022/02/28 11:49:13;;;;;;;0.67;0.67;;;;;;;;;;5032121;28;20421;-60
2022/02/28 11:51:41;;;;;;;0.60;0.60;;;;;;;;;;5031930;28;20414;-61
2022/02/28 11:54:23;;;;;;;0.50;0.50;;;;;;;;;;5032109;28;20412;-60
2022/02/28 11:56:51;;;;;;;0.50;0.50;;;;;;;;;;5032191;28;20496;-60
2022/02/28 11:59:20;;;;;;;0.70;0.70;;;;;;;;;;5031565;28;20512;-60
2022/02/28 12:01:52;;;;;;;0.77;0.77;;;;;;;;;;5031569;28;20388;-61
2022/02/28 12:04:19;;;;;;;0.73;0.73;;;;;;;;;;5031863;28;20434;-59
2022/02/28 12:06:51;;;;;;;0.60;0.60;;;;;;;;;;5031805;28;20432;-62
2022/02/28 12:09:33;;;;;;;0.50;0.50;;;;;;;;;;5031909;28;20761;-61
2022/02/28 12:12:19;;;;;;;0.40;0.40;;;;;;;;;;5031446;28;20450;-61
2022/02/28 12:14:57;;;;;;;0.50;0.50;;;;;;;;;;5031808;28;20414;-61
2022/02/28 12:17:33;;;;;;;0.47;0.47;;;;;;;;;;5031742;28;20406;-62
2022/02/28 12:20:18;;;;;;;0.77;0.77;;;;;;;;;;5031625;28;20919;-61
2022/02/28 12:22:53;;;;;;;0.83;0.83;;;;;;;;;;5031666;28;20763;-61
2022/02/28 12:25:39;;;;;;;0.60;0.60;;;;;;;;;;5031490;28;20419;-60
2022/02/28 12:28:24;;;;;;;0.80;0.80;;;;;;;;;;5031133;28;20430;-61
2022/02/28 12:31:02;;;;;;;0.80;0.80;;;;;;;;;;5031101;28;20439;-61
2022/02/28 12:33:34;;;;;;;0.60;0.60;;;;;;;;;;5031405;28;20403;-62
2022/02/28 12:36:08;;;;;;;0.60;0.60;;;;;;;;;;5031439;28;20425;-61
2022/02/28 12:38:38;;;;;;;0.60;0.60;;;;;;;;;;5031514;28;20501;-61
2022/02/28 12:41:08;;;;;;;0.50;0.50;;;;;;;;;;5042851;28;20888;-61
2022/02/28 12:43:35;;;;;;;0.60;0.60;;;;;;;;;;5051293;28;20410;-61
2022/02/28 12:46:02;;;;;;;0.50;0.50;;;;;;;;;;5051045;28;20893;-61
2022/02/28 12:48:30;;;;;;;0.60;0.60;;;;;;;;;;5051217;28;20747;-61
2022/02/28 12:50:57;;;;;;;0.60;0.60;;;;;;;;;;5051032;28;20407;-61
2022/02/28 12:53:27;;;;;;;0.80;0.80;;;;;;;;;;5051276;28;20418;-61
2022/02/28 12:55:54;;;;;;;1.03;1.03;;;;;;;;;;5051017;28;20937;-61
2022/02/28 12:58:23;;;;;;;0.97;0.97;;;;;;;;;;5051205;28;20867;-61
2022/02/28 13:00:49;;;;;;;0.97;0.97;;;;;;;;;;5050745;28;20455;-61
2022/02/28 13:03:15;;;;;;;0.80;0.80;;;;;;;;;;5051093;28;20737;-62
2022/02/28 13:05:53;;;;;;;0.90;0.90;;;;;;;;;;5051214;28;20428;-58
2022/02/28 13:08:19;;;;;;;0.97;0.97;;;;;;;;;;5051092;28;20583;-60
2022/02/28 13:10:45;;;;;;;1.23;1.23;;;;;;;;;;5050835;28;20402;-60
2022/02/28 13:13:22;;;;;;;1.00;1.00;;;;;;;;;;5050950;28;20525;-60
2022/02/28 13:15:58;;;;;;;0.80;0.80;;;;;;;;;;5050319;28;20923;-59
2022/02/28 13:18:28;;;;;;;1.20;1.20;;;;;;;;;;5050949;28;20647;-60
2022/02/28 13:20:54;;;;;;;0.73;0.73;;;;;;;;;;5050572;28;20446;-61
2022/02/28 13:23:21;;;;;;;0.80;0.80;;;;;;;;;;5050809;28;20406;-61
2022/02/28 13:25:57;;;;;;;0.80;0.80;;;;;;;;;;5050928;28;20195;-61
2022/02/28 13:28:35;;;;;;;0.70;0.70;;;;;;;;;;5050871;28;20701;-61
2022/02/28 13:31:01;;;;;;;0.52;0.52;;;;;;;;;;5051416;28;20517;-60
2022/02/28 13:33:28;;;;;;;0.73;0.73;;;;;;;;;;5050785;28;20176;-57
2022/02/28 13:35:55;;;;;;;0.50;0.50;;;;;;;;;;5050730;28;20913;-60
2022/02/28 13:38:21;;;;;;;0.93;0.93;;;;;;;;;;5050783;28;20186;-60
2022/02/28 13:40:48;;;;;;;1.00;1.00;;;;;;;;;;5051753;28;20449;-59
2022/02/28 13:43:14;;;;;;;0.95;0.95;;;;;;;;;;5054549;28;20187;-59
2022/02/28 13:45:43;;;;;;;0.70;0.70;;;;;;;;;;5054268;28;20235;-60
2022/02/28 13:48:23;;;;;;;1.10;1.10;;;;;;;;;;5054435;28;20161;-59
2022/02/28 13:50:50;;;;;;;0.90;0.90;;;;;;;;;;5054305;28;20183;-61
2022/02/28 13:53:16;;;;;;;1.13;1.13;;;;;;;;;;5054399;28;20216;-60
2022/02/28 13:55:43;;;;;;;0.85;0.85;;;;;;;;;;5054265;28;20287;-60
2022/02/28 13:58:10;;;;;;;0.80;0.80;;;;;;;;;;5054206;28;20233;-60
2022/02/28 14:00:37;;;;;;;0.75;0.75;;;;;;;;;;5054050;28;20609;-59
2022/02/28 14:03:03;;;;;;;1.10;1.10;;;;;;;;;;5054119;28;20172;-61
2022/02/28 14:05:38;;;;;;;0.97;0.97;;;;;;;;;;5053963;28;20199;-57
2022/02/28 14:08:04;;;;;;;1.10;1.10;;;;;;;;;;5054033;28;20394;-60
2022/02/28 14:10:32;;;;;;;0.90;0.90;;;;;;;;;;5053589;28;20551;-56
2022/02/28 14:12:58;;;;;;;1.00;1.00;;;;;;;;;;5053765;28;20429;-56
2022/02/28 14:15:25;;;;;;;0.97;0.97;;;;;;;;;;5053840;28;20426;-58
2022/02/28 14:17:55;;;;;;;1.00;1.00;;;;;;;;;;5053963;28;20422;-60
2022/02/28 14:20:22;;;;;;;1.25;1.25;;;;;;;;;;5053488;28;20197;-60
2022/02/28 14:23:08;;;;;;;0.80;0.80;;;;;;;;;;5053815;28;20176;-58
2022/02/28 14:25:34;;;;;;;0.98;0.98;;;;;;;;;;5053524;28;20294;-59
2022/02/28 14:28:02;;;;;;;0.90;0.90;;;;;;;;;;5053669;28;20178;-58
2022/02/28 14:30:28;;;;;;;1.27;1.27;;;;;;;;;;5053387;28;20196;-58
2022/02/28 14:33:04;;;;;;;1.00;1.00;;;;;;;;;;5053537;28;20622;-61
2022/02/28 14:35:30;;;;;;;1.10;1.10;;;;;;;;;;5053465;28;20426;-59
2022/02/28 14:37:59;;;;;;;1.27;1.27;;;;;;;;;;5053397;28;20267;-59
2022/02/28 14:40:25;;;;;;;1.65;1.65;;;;;;;;;;5053095;28;20192;-59
2022/02/28 14:42:52;;;;;;;0.90;0.90;;;;;;;;;;5053401;28;20176;-60
2022/02/28 14:45:18;;;;;;;0.73;0.73;;;;;;;;;;5053136;28;20927;-59